Aeroporto :







RITROVATECI SU...

 
LOGIN :

Iscrizione | Disclaimer

   EN    FR    IT 

 









Sommario :    VFR   VFR Marginale   IFR   IFR Intensivo   IFR Molto Intensivo
Visibilità : 
Base nubi : 
>= 8 km
>= 3000ft
5 / 8 km
1000 / 3000 ft
1500m / 5 km
500 / 1000 ft
800 / 1500m
200 / 500 ft
< 800m
< 200 ft
Simboli :   Temporali  Nebbia  Neve Forte  Precipitazioni Forti  Vento > 20 kt






- Altitudine del aeroporto : 626 ft


KCAR - Caribou Municipal

ULTIMO METAR :
  • 220754Z AUTO 16010KT 10SM OVC009 M03/M04 A2981 RMK AO2 SLP106 T10281044

METARs OBSOLETI :
  • 220723Z AUTO 16008KT 10SM OVC009 M02/M04 A2983 RMK AO2 T10221044
  • 220654Z AUTO 15008KT 10SM OVC010 M02/M04 A2985 RMK AO2 SLP120 T10221044
  • 220554Z AUTO 16007KT 10SM OVC011 M02/M04 A2988 RMK AO2 SLP129 T10221039 11006 21022 58024

TAF KCAR
Valido dal 22 a 06 ore il 23 a 06 ore UTC


220532Z 2206/2306 16010KT P6SM OVC012 WS020/21045KT
FM221000 18010KT 5SM -FZRAPL OVC008 WS020/21040KT
FM221400 17011KT 5SM -RA BR OVC005 WS020/20045KT
FM222000 20011KT 3SM -RA OVC005
FM222200 21011G19KT 3SM -RASN OVC011
FM230000 23011G20KT P6SM VCSH OVC020
FM230400 28014G22KT P6SM OVC040



MetMap, La meteo Aeronautica in un colpo d'occhio ! - Copyright ORBIFLY Dicembre 2007 - Disclaimer

ORBIFLY MET'MAP TEAM :

Programmazione e sviluppo : Alexandra Zaïnal
Concezione e sviluppo : Baudouin d'Aumeries
Co-Programmazione e sviluppo : Marc-Olivier Méhu
Supporto tecnico e logistico : Manuel Goepfert
Aiuto per la traduzione : Arnaldo La Scala

Contatto : metmap@orbifly.com




FONTI E CREDITI :

   NOAA